Tikaboo Peak, Nevada Weather observations

Data are for 10 minute period ending at time listed.
 Day   Time   Solar   Ave.   Ave.  Ave.  Vector  Max.   Baro.   Total    
  of    of     Rad.   Air    Rel.  Wind   Wind   Wind  Press.  Precip.   
Year   Day            Temp.  Hum.  Speed  Dir.   Gust                    
2026   (PST)  Kw/m2    F      %     mph   deg.    mph    mb.     in.     
-------------------------------------------------------------------------
 121   21:30   0.00   47.3    16   13.1   195    17.9   764.1    0.00 
 121   21:40   0.00   47.1    15   12.6   197    16.7   764.1    0.00 
 121   21:50   0.00   47.0    16   13.5   195    17.5   764.1    0.00 
 121   22:00   0.00   46.8    16   14.9   194    18.3   764.0    0.00 
 121   22:10   0.00   46.7    16   14.8   204    17.7   764.0    0.00 
 121   22:20   0.00   46.6    16   15.3   204    19.1   764.1    0.00 
 121   22:30   0.00   46.1    18   15.7   200    19.3   764.1    0.00 
 121   22:40   0.00   45.9    18   15.3   200    19.3   764.1    0.00 
 121   22:50   0.00   45.7    19   15.3   198    18.9   764.1    0.00 
 121   23:00   0.00   45.5    19   14.6   199    17.3   764.2    0.00 
 121   23:10   0.00   45.4    19   14.6   195    17.0   764.2    0.00 
 121   23:20   0.00   45.3    19   14.4   195    16.6   764.2    0.00 
 121   23:30   0.00   45.3    19   14.3   193    16.4   764.3    0.00 
 121   23:40   0.00   45.4    20   15.1   189    19.6   764.2    0.00 
 121   23:50   0.00   45.4    20   14.7   186    20.8   764.2    0.00 
 122    0:00   0.00   45.4    20   17.2   185    21.5   764.1    0.00 
 122    0:10   0.00   45.6    20   16.4   183    20.2   764.1    0.00 
 122    0:20   0.00   45.6    20   13.8   180    19.9   764.1    0.00 
 122    0:30   0.00   45.4    20   14.7   175    20.4   764.0    0.00 
 122    0:40   0.00   45.5    19   13.5   180    20.0   764.0    0.00 
 122    0:50   0.00   45.5    19   14.3   177    18.8   763.9    0.00 
 122    1:00   0.00   45.5    19   13.1   181    18.6   763.9    0.00 
 122    1:10   0.00   45.4    19   12.4   176    16.8   763.9    0.00 
 122    1:20   0.00   45.2    19   13.5   179    17.4   763.9    0.00 
 122    1:30   0.00   45.1    19   13.7   186    20.6   763.8    0.00 
 122    1:40   0.00   45.1    19   14.4   190    18.6   763.8    0.00 
 122    1:50   0.00   44.9    20   13.3   198    17.7   763.7    0.00 
 122    2:00   0.00   45.0    21   14.5   205    18.2   763.7    0.00 
 122    2:10   0.00   45.0    21   13.7   212    17.7   763.7    0.00 
 122    2:20   0.00   44.9    21   14.7   210    17.5   763.7    0.00 
 122    2:30   0.00   45.0    21   15.5   207    20.2   763.6    0.00 
 122    2:40   0.00   44.9    21   13.7   206    16.7   763.7    0.00 
 122    2:50   0.00   44.9    21   14.4   206    17.5   763.7    0.00 
 122    3:00   0.00   45.0    22   14.4   210    17.6   763.6    0.00 
 122    3:10   0.00   45.0    22   14.4   210    18.1   763.7    0.00 
 122    3:20   0.00   44.7    23   15.1   208    21.4   763.6    0.00 
 122    3:30   0.00   44.6    23   15.2   213    18.9   763.6    0.00 
 122    3:40   0.00   44.7    23   16.4   219    20.8   763.5    0.00 
 122    3:50   0.00   44.7    23   17.3   220    21.2   763.5    0.00 
 122    4:00   0.00   44.9    23   17.9   223    20.3   763.4    0.00 
 122    4:10   0.00   44.9    24   18.1   223    21.3   763.5    0.00 
 122    4:20   0.00   45.0    24   16.8   225    23.0   763.5    0.00 
 122    4:30   0.00   44.8    24   15.5   218    19.6   763.5    0.00 
 122    4:40   0.00   44.6    24   15.8   224    20.2   763.5    0.00 
 122    4:50   0.01   44.6    24   16.6   221    19.6   763.6    0.00 
 122    5:00   0.02   44.6    24   16.8   222    20.5   763.6    0.00 
 122    5:10   0.04   44.9    24   16.7   224    19.6   763.7    0.00 
 122    5:20   0.07   45.5    23   16.8   223    19.6   763.7    0.00 
 122    5:30   0.08   45.6    24   15.5   227    20.5   763.8    0.00 
 122    5:40   0.11   45.8    24   15.8   228    18.4   763.9    0.00 
 122    5:50   0.15   45.9    24   14.9   227    17.7   764.0    0.00 
 122    6:00   0.18   46.1    24   15.8   227    19.1   764.0    0.00 
 122    6:10   0.20   46.0    25   14.9   226    20.6   764.2    0.00 
 122    6:20   0.25   46.3    24   15.4   232    17.5   764.2    0.00 
 122    6:30   0.32   46.9    25   15.8   236    20.1   764.3    0.00 
 122    6:40   0.33   47.3    25   15.2   236    20.8   764.3    0.00 
 122    6:50   0.39   47.6    25   15.1   235    21.9   764.3    0.00 
 122    7:00   0.41   48.1    25   15.7   236    21.8   764.4    0.00 
 122    7:10   0.45   48.7    24   15.0   242    21.6   764.4    0.00 
 122    7:20   0.46   49.4    24   13.7   241    19.4   764.5    0.00 
 122    7:30   0.50   49.1    24   14.0   233    18.6   764.6    0.00 
 122    7:40   0.51   49.2    24   11.7   224    16.2   764.7    0.00 
 122    7:50   0.56   49.7    24    9.9   230    14.6   764.7    0.00 
 122    8:00   0.64   50.6    23    9.9   234    16.8   764.8    0.00 
 122    8:10   0.64   51.7    23    8.6   246    15.3   764.8    0.00 
 122    8:20   0.67   51.2    23   10.0   238    15.7   764.9    0.00 
 122    8:30   0.69   52.6    22    7.3   255    15.8   764.9    0.00 
 122    8:40   0.71   52.9    20    9.3   254    17.6   765.0    0.00 
 122    8:50   0.78   51.9    21    9.8   241    17.8   765.0    0.00 
 122    9:00   0.84   52.9    20    8.0   262    16.4   765.0    0.00 
 122    9:10   0.88   55.3    19    6.5   256    15.4   765.1    0.00 
 122    9:20   0.86   53.9    18   10.9   242    17.4   765.2    0.00 
 122    9:30   0.76   53.0    19    8.4   236    18.9   765.3    0.00 
 122    9:40   0.76   52.6    18   10.0   250    19.6   765.3    0.00 
 122    9:50   0.88   53.6    18    7.5   245    15.1   765.3    0.00 
 122   10:00   0.97   53.9    17    9.0   226    16.7   765.2    0.00 
 122   10:10   1.00   55.7    17    4.8   273    12.7   765.2    0.00 
 122   10:20   1.05   56.6    16    5.6   271    13.4   765.2    0.00 
 122   10:30   1.07   58.3    16    3.7   292    14.0   765.2    0.00 
 122   10:40   0.97   58.1    15    5.1   222    10.9   765.1    0.00 
 122   10:50   1.06   57.5    15    6.9   240    17.9   765.1    0.00 
 122   11:00   1.12   56.5    15    7.1   248    17.5   765.0    0.00 
 122   11:10   1.11   57.3    14    5.2   232    11.3   764.9    0.00 
 122   11:20   1.11   57.7    15    4.1   243    14.4   764.8    0.00 
 122   11:30   1.13   59.8    14    4.4   326    13.1   764.7    0.00 
 122   11:40   1.13   60.6    14    4.4   338    12.3   764.7    0.00 
 122   11:50   1.11   59.5    13    7.2   274    15.3   764.5    0.00 
 122   12:00   1.12   59.2    13    5.0   313    12.6   764.5    0.00 
 122   12:10   1.11   61.0    12    4.0   294    11.7   764.5    0.00 
 122   12:20   1.10   59.4    12    5.3   261    11.5   764.4    0.00 
 122   12:30   1.09   60.1    12    4.7   259    16.1   764.3    0.00 
 122   12:40   1.07   59.4    12    5.5   220    11.8   764.3    0.00 
 122   12:50   1.06   59.7    12    3.6   298    12.4   764.2    0.00 
 122   13:00   1.01   62.0    12    4.2   355    10.7   764.1    0.00 
 122   13:10   1.00   62.4    11    4.2     7    15.6   763.9    0.00 
 122   13:20   1.00   60.5    10    4.8   242    13.7   763.8    0.00 
 122   13:30   0.98   59.7    11    4.1   260    14.3   763.8    0.00 
 122   13:40   0.94   61.5    11    5.9   324    13.0   763.8    0.00 
 122   13:50   0.91   62.9    10    6.3   338    15.8   763.6    0.00 
 122   14:00   0.90   62.9    10    5.2   330    14.5   763.5    0.00 
 122   14:10   0.82   60.9    10    4.9   247    12.1   763.3    0.00 
 122   14:20   0.77   60.0    10    8.3   308    18.0   763.3    0.00 
 122   14:30   0.71   61.4     9    5.8   354    16.9   763.1    0.00 
 122   14:40   0.71   59.5    10    5.4   226    16.7   763.0    0.00 
 122   14:50   0.74   60.4     9    3.6   287    11.4   762.9    0.00 
 122   15:00   0.69   61.4     9    5.8   319    13.1   762.8    0.00 
 122   15:10   0.47   60.0     9    3.3   282    10.0   762.7    0.00 
 122   15:20   0.50   59.5     8    7.0   333    14.9   762.6    0.00 
 122   15:30   0.46   59.6     8    7.0   324    16.7   762.7    0.00 
 122   15:40   0.41   58.8    10    3.9   334    11.2   762.7    0.00 
 122   15:50   0.32   59.2     9    6.2   354    14.8   762.6    0.00 
 122   16:00   0.34   58.5     9    8.7   335    14.2   762.6    0.00 
 122   16:10   0.35   58.7     9    7.9   330    15.1   762.6    0.00 
 122   16:20   0.30   59.0     9    3.2   358     9.7   762.6    0.00 
 122   16:30   0.26   59.1    10    4.8   355    11.2   762.6    0.00 
 122   16:40   0.22   58.0    10    5.1   338    12.8   762.5    0.00 
 122   16:50   0.21   57.3    10    4.7   321    11.8   762.5    0.00 
 122   17:00   0.20   57.1    10    2.6   334     6.5   762.4    0.00 
 122   17:10   0.18   57.1    10    2.8   322     8.8   762.3    0.00 
 122   17:20   0.17   56.5    11    1.5   266     5.0   762.4    0.00 
 122   17:30   0.17   55.7    10    4.1   246     7.3   762.4    0.00 
 122   17:40   0.15   54.7    10    6.0   247    10.7   762.3    0.00 
 122   17:50   0.10   53.9    11    6.6   235    10.7   762.2    0.00 
 122   18:00   0.06   53.3    11    9.1   232    12.6   762.2    0.00 
 122   18:10   0.05   52.9    11    9.6   236    12.2   762.1    0.00 
 122   18:20   0.04   52.6    11   10.4   233    13.6   762.1    0.00 
 122   18:30   0.02   52.2    11   10.5   219    13.1   762.1    0.00 
 122   18:40   0.01   51.9    11   12.3   218    14.3   762.1    0.00 
 122   18:50   0.00   51.8    11   12.3   223    13.4   762.1    0.00 
 122   19:00   0.00   51.6    11   12.5   225    14.8   762.1    0.00 
 122   19:10   0.00   51.6    11   12.1   227    13.5   762.2    0.00 
 122   19:20   0.00   51.5    11   11.8   239    13.6   762.3    0.00 
 122   19:30   0.00   51.5    11   11.6   234    13.1   762.3    0.00 
 122   19:40   0.00   51.2    11   11.5   230    13.1   762.4    0.00 
 122   19:50   0.00   51.4    11   10.6   235    12.3   762.4    0.00 
 122   20:00   0.00   51.4    11   10.2   238    11.6   762.5    0.00 
 122   20:10   0.00   51.3    11   10.3   239    11.2   762.7    0.00 
 122   20:20   0.00   51.3    11    9.3   242    11.4   762.7    0.00 
 122   20:30   0.00   51.4    11   10.9   246    12.3   762.8    0.00 
 122   20:40   0.00   51.6    10   10.8   256    13.1   762.9    0.00 
 122   20:50   0.00   51.5    10   12.5   258    15.1   762.9    0.00 
 122   21:00   0.00   51.5    10   11.5   268    15.6   762.9    0.00 
 122   21:10   0.00   51.7    11   10.4   274    15.0   762.9    0.00 
 122   21:20   0.00   51.7    11    9.7   269    13.9   762.9    0.00 

Return to Tikaboo Peak graphs page.


Western Regional Climate Center,wrcc@dri.edu